Time;durP1;ratioP1;P1;durP2;ratioP2;P2;SDS_P1;SDS_P2;PMS_P1;PMS_P2;Temp;Humidity;BMP_temperature;BMP_pressure;BME280_temperature;BME280_humidity;BME280_pressure;Samples;Min_cycle;Max_cycle;Signal;HPM_P1;HPM_P2
2020/12/23 00:01:48;;;;;;;11.30;5.03;;;;;;;;;;10358041;28;20039;-64
2020/12/23 00:06:46;;;;;;;8.17;3.40;;;;;;;;;;10373020;28;20036;-64
2020/12/23 00:11:43;;;;;;;9.80;3.00;;;;;;;;;;10373740;28;20151;-65
2020/12/23 00:16:41;;;;;;;5.50;2.10;;;;;;;;;;10373161;28;20044;-66
2020/12/23 00:21:38;;;;;;;8.75;3.35;;;;;;;;;;10355516;28;20133;-64
2020/12/23 00:26:36;;;;;;;9.33;2.47;;;;;;;;;;10369554;28;20040;-64
2020/12/23 00:31:33;;;;;;;7.77;3.97;;;;;;;;;;10376279;28;20037;-63
2020/12/23 00:36:31;;;;;;;8.63;3.33;;;;;;;;;;10367619;28;20032;-64
2020/12/23 00:41:28;;;;;;;5.23;2.67;;;;;;;;;;10363102;28;20029;-62
2020/12/23 00:46:26;;;;;;;4.43;2.20;;;;;;;;;;10369230;28;20668;-63
2020/12/23 00:51:23;;;;;;;8.37;3.30;;;;;;;;;;10373235;28;20081;-63
2020/12/23 00:56:21;;;;;;;4.57;2.73;;;;;;;;;;10346411;28;20433;-64
2020/12/23 01:01:19;;;;;;;7.57;3.27;;;;;;;;;;10362292;28;20032;-63
2020/12/23 01:06:18;;;;;;;3.55;2.20;;;;;;;;;;10365671;28;20037;-65
2020/12/23 01:11:16;;;;;;;5.40;3.07;;;;;;;;;;10358445;28;20047;-64
2020/12/23 01:16:18;;;;;;;4.78;3.58;;;;;;;;;;10364017;28;20091;-62
2020/12/23 01:21:15;;;;;;;7.38;3.15;;;;;;;;;;10354776;28;20059;-64
2020/12/23 01:26:13;;;;;;;8.90;4.00;;;;;;;;;;10361832;28;20040;-64
2020/12/23 01:31:10;;;;;;;6.63;3.50;;;;;;;;;;10358095;28;20024;-63
2020/12/23 01:36:08;;;;;;;4.70;2.60;;;;;;;;;;10349922;28;20101;-63
2020/12/23 01:41:06;;;;;;;10.93;3.80;;;;;;;;;;10345432;28;20044;-65
2020/12/23 01:46:03;;;;;;;9.40;4.97;;;;;;;;;;10363182;28;20063;-64
2020/12/23 01:51:02;;;;;;;3.80;2.37;;;;;;;;;;10350931;28;20033;-64
2020/12/23 01:56:01;;;;;;;8.15;3.15;;;;;;;;;;10357356;28;20498;-64
2020/12/23 02:00:59;;;;;;;13.85;4.40;;;;;;;;;;10360253;28;20039;-64
2020/12/23 02:05:57;;;;;;;3.40;2.08;;;;;;;;;;10359861;28;20048;-63
2020/12/23 02:10:54;;;;;;;1.73;1.30;;;;;;;;;;10376650;28;20041;-64
2020/12/23 02:15:51;;;;;;;7.87;2.50;;;;;;;;;;10367132;28;20650;-64
2020/12/23 02:20:49;;;;;;;1.20;1.10;;;;;;;;;;10358997;28;20383;-64
2020/12/23 02:25:46;;;;;;;2.50;1.50;;;;;;;;;;10363985;28;20051;-63
2020/12/23 02:30:43;;;;;;;1.77;1.30;;;;;;;;;;10372037;28;20036;-63
2020/12/23 02:35:41;;;;;;;5.23;2.63;;;;;;;;;;10364713;28;20040;-63
2020/12/23 02:40:38;;;;;;;1.40;1.10;;;;;;;;;;10371042;28;20120;-64
2020/12/23 02:45:36;;;;;;;2.83;2.20;;;;;;;;;;10364764;28;20443;-64
2020/12/23 02:50:33;;;;;;;0.80;0.43;;;;;;;;;;10371458;28;20085;-64
2020/12/23 02:55:30;;;;;;;0.53;0.53;;;;;;;;;;10352611;28;20067;-63
2020/12/23 03:00:28;;;;;;;0.80;0.80;;;;;;;;;;10365849;28;20028;-64
2020/12/23 03:05:25;;;;;;;0.20;0.20;;;;;;;;;;10348206;28;20043;-64
2020/12/23 03:10:22;;;;;;;1.73;0.70;;;;;;;;;;10369009;28;20036;-64
2020/12/23 03:15:20;;;;;;;1.93;1.40;;;;;;;;;;10368517;28;20593;-64
2020/12/23 03:20:17;;;;;;;0.30;0.30;;;;;;;;;;10364112;28;20046;-63
2020/12/23 03:25:14;;;;;;;3.40;1.63;;;;;;;;;;10351246;28;20040;-62
2020/12/23 03:30:12;;;;;;;0.67;0.67;;;;;;;;;;10348725;28;20044;-62
2020/12/23 03:35:09;;;;;;;2.13;0.73;;;;;;;;;;10378254;28;20047;-63
2020/12/23 03:40:07;;;;;;;0.70;0.50;;;;;;;;;;10371958;28;20403;-63
2020/12/23 03:45:05;;;;;;;1.03;0.83;;;;;;;;;;10380169;28;20032;-63
2020/12/23 03:50:03;;;;;;;2.40;1.17;;;;;;;;;;10376351;28;20033;-64
2020/12/23 03:55:00;;;;;;;0.88;0.82;;;;;;;;;;10380821;28;20021;-65
2020/12/23 03:59:58;;;;;;;1.37;1.20;;;;;;;;;;10365712;28;20020;-65
2020/12/23 04:04:55;;;;;;;0.73;0.73;;;;;;;;;;10362084;28;20056;-65
2020/12/23 04:09:53;;;;;;;0.70;0.70;;;;;;;;;;10379312;28;20028;-64
2020/12/23 04:14:50;;;;;;;0.63;0.63;;;;;;;;;;10376213;28;20082;-65
2020/12/23 04:19:48;;;;;;;0.87;0.87;;;;;;;;;;10372438;28;20086;-64
2020/12/23 04:24:48;;;;;;;1.20;1.10;;;;;;;;;;10366518;28;20059;-64
2020/12/23 04:29:46;;;;;;;0.88;0.88;;;;;;;;;;10357408;28;20029;-64
2020/12/23 04:34:44;;;;;;;0.80;0.80;;;;;;;;;;10373844;28;20033;-64
2020/12/23 04:39:41;;;;;;;0.50;0.50;;;;;;;;;;10353952;28;20128;-65
2020/12/23 04:44:39;;;;;;;1.93;1.30;;;;;;;;;;10363407;28;20044;-64
2020/12/23 04:49:37;;;;;;;5.20;1.97;;;;;;;;;;10369923;28;20112;-65
2020/12/23 04:54:35;;;;;;;0.73;0.73;;;;;;;;;;10370048;28;20275;-65
2020/12/23 04:59:32;;;;;;;1.87;1.70;;;;;;;;;;10373291;28;20037;-64
2020/12/23 05:04:30;;;;;;;3.00;1.87;;;;;;;;;;10364475;28;20025;-64
2020/12/23 05:09:27;;;;;;;1.30;1.07;;;;;;;;;;10368459;28;20523;-64
2020/12/23 05:14:25;;;;;;;1.27;1.13;;;;;;;;;;10360650;28;20371;-63
2020/12/23 05:19:23;;;;;;;1.00;0.75;;;;;;;;;;10369540;28;20434;-62
2020/12/23 05:24:23;;;;;;;2.00;1.90;;;;;;;;;;10373265;28;20060;-63
2020/12/23 05:29:21;;;;;;;1.02;0.95;;;;;;;;;;10367737;28;20032;-63
2020/12/23 05:34:18;;;;;;;5.80;2.73;;;;;;;;;;10375453;28;20043;-63
2020/12/23 05:39:16;;;;;;;1.20;1.03;;;;;;;;;;10369893;28;20035;-65
2020/12/23 05:44:14;;;;;;;2.37;1.33;;;;;;;;;;10345840;28;20052;-62
2020/12/23 05:49:13;;;;;;;1.10;1.08;;;;;;;;;;10374744;28;20410;-62
2020/12/23 05:54:11;;;;;;;1.63;1.42;;;;;;;;;;10371872;28;20525;-63
2020/12/23 05:59:09;;;;;;;4.90;1.98;;;;;;;;;;10370281;28;20029;-64
2020/12/23 06:04:07;;;;;;;2.60;1.33;;;;;;;;;;10350824;28;20036;-63
2020/12/23 06:09:05;;;;;;;;;;;;;;;;;;10353234;28;20028;-64
2020/12/23 06:14:02;;;;;;;3.65;1.77;;;;;;;;;;10357387;28;19919;-64
2020/12/23 06:19:00;;;;;;;5.57;2.33;;;;;;;;;;10372349;28;20028;-63
2020/12/23 06:24:02;;;;;;;4.72;2.67;;;;;;;;;;10368444;28;20398;-63
2020/12/23 06:29:01;;;;;;;5.88;2.83;;;;;;;;;;10351476;28;20032;-63
2020/12/23 06:33:58;;;;;;;;;;;;;;;;;;10358941;28;20533;-62
2020/12/23 06:39:14;;;;;;;0.93;0.93;;;;;;;;;;10354160;28;19913;-62
2020/12/23 06:44:11;;;;;;;0.80;0.73;;;;;;;;;;10356234;28;20051;-60
2020/12/23 06:49:15;;;;;;;2.63;1.83;;;;;;;;;;10352821;28;20036;-63
2020/12/23 06:54:32;;;;;;;4.85;3.03;;;;;;;;;;10346500;28;20024;-62
2020/12/23 06:59:45;;;;;;;6.53;1.40;;;;;;;;;;10351398;28;20102;-62
2020/12/23 07:04:47;;;;;;;1.73;1.35;;;;;;;;;;10345632;28;20097;-62
2020/12/23 07:09:50;;;;;;;4.68;2.35;;;;;;;;;;10352913;28;20609;-62
2020/12/23 07:15:07;;;;;;;2.58;1.65;;;;;;;;;;10366618;28;20033;-62
2020/12/23 07:20:05;;;;;;;1.38;1.05;;;;;;;;;;10350235;28;20045;-62
2020/12/23 07:25:03;;;;;;;3.88;2.03;;;;;;;;;;10338919;28;20123;-63
2020/12/23 07:30:05;;;;;;;3.42;1.45;;;;;;;;;;10361848;28;20027;-62
2020/12/23 07:35:05;;;;;;;8.25;1.83;;;;;;;;;;10356096;28;20491;-61
2020/12/23 07:40:11;;;;;;;1.52;1.45;;;;;;;;;;10347243;28;20490;-62
2020/12/23 07:45:09;;;;;;;5.18;2.40;;;;;;;;;;10355904;28;20081;-62
2020/12/23 07:50:07;;;;;;;4.20;2.67;;;;;;;;;;10353832;28;20104;-61
2020/12/23 07:55:13;;;;;;;2.60;1.97;;;;;;;;;;10341836;28;20023;-64
2020/12/23 08:00:12;;;;;;;3.40;1.80;;;;;;;;;;10367607;28;20029;-63
2020/12/23 08:05:10;;;;;;;6.85;2.45;;;;;;;;;;10367222;28;20086;-63
2020/12/23 08:10:09;;;;;;;2.22;1.48;;;;;;;;;;10361835;28;20475;-63
2020/12/23 08:15:13;;;;;;;1.08;0.55;;;;;;;;;;10381801;28;20147;-63
2020/12/23 08:20:16;;;;;;;3.33;1.77;;;;;;;;;;10346160;28;20124;-63
2020/12/23 08:25:14;;;;;;;0.90;0.90;;;;;;;;;;10375902;28;20135;-63
2020/12/23 08:30:12;;;;;;;;;;;;;;;;;;10354823;28;20029;-64
2020/12/23 08:35:09;;;;;;;2.17;1.30;;;;;;;;;;10358935;28;19904;-64
2020/12/23 08:40:08;;;;;;;4.33;2.33;;;;;;;;;;10359178;28;20021;-62
2020/12/23 08:45:06;;;;;;;1.17;1.13;;;;;;;;;;10344623;28;20143;-63
2020/12/23 08:50:03;;;;;;;4.33;2.83;;;;;;;;;;10372168;28;20029;-64
2020/12/23 08:55:12;;;;;;;4.33;1.97;;;;;;;;;;10364688;28;20425;-63
2020/12/23 09:00:15;;;;;;;2.50;2.15;;;;;;;;;;10358489;28;20020;-63
2020/12/23 09:05:42;;;;;;;2.40;2.13;;;;;;;;;;10349051;28;20401;-63
2020/12/23 09:10:40;;;;;;;3.47;1.35;;;;;;;;;;10348744;28;20086;-63
2020/12/23 09:15:37;;;;;;;2.15;1.95;;;;;;;;;;10363736;28;20024;-64
2020/12/23 09:20:35;;;;;;;4.17;3.40;;;;;;;;;;10372254;28;20043;-64
2020/12/23 09:25:33;;;;;;;4.80;3.58;;;;;;;;;;10347018;28;20048;-63
2020/12/23 09:30:35;;;;;;;5.35;3.33;;;;;;;;;;10359395;28;20153;-63
2020/12/23 09:35:34;;;;;;;3.50;2.60;;;;;;;;;;10372882;28;20032;-64
2020/12/23 09:40:32;;;;;;;2.80;1.90;;;;;;;;;;10361754;28;20040;-63
2020/12/23 09:45:29;;;;;;;3.22;2.53;;;;;;;;;;10369407;28;20317;-63
2020/12/23 09:50:27;;;;;;;0.93;0.93;;;;;;;;;;10340024;28;20043;-63
2020/12/23 09:55:25;;;;;;;1.60;1.40;;;;;;;;;;10364195;28;20032;-62
2020/12/23 10:00:24;;;;;;;6.10;2.80;;;;;;;;;;10363737;28;20498;-64
2020/12/23 10:05:21;;;;;;;2.95;2.60;;;;;;;;;;10365869;28;20040;-64
2020/12/23 10:10:19;;;;;;;4.73;2.77;;;;;;;;;;10348599;28;20426;-65
2020/12/23 10:15:16;;;;;;;5.13;3.17;;;;;;;;;;10341233;28;20782;-63
2020/12/23 10:20:14;;;;;;;3.43;2.87;;;;;;;;;;10346041;28;20044;-63
2020/12/23 10:25:11;;;;;;;5.73;3.43;;;;;;;;;;10336712;28;20032;-64
2020/12/23 10:30:10;;;;;;;4.00;3.17;;;;;;;;;;10368085;28;20414;-62
2020/12/23 10:35:10;;;;;;;7.00;3.83;;;;;;;;;;10348646;28;20084;-64
2020/12/23 10:40:08;;;;;;;4.50;2.37;;;;;;;;;;10369422;28;20025;-63
2020/12/23 10:45:06;;;;;;;6.03;3.47;;;;;;;;;;10335396;28;20032;-64
2020/12/23 10:50:04;;;;;;;4.18;2.33;;;;;;;;;;10376627;28;20020;-64
2020/12/23 10:55:01;;;;;;;5.57;3.43;;;;;;;;;;10348058;28;20020;-64
2020/12/23 10:59:59;;;;;;;7.90;3.53;;;;;;;;;;10344014;28;20115;-64
2020/12/23 11:04:57;;;;;;;7.70;3.28;;;;;;;;;;10357153;28;20056;-64
2020/12/23 11:09:54;;;;;;;6.30;2.43;;;;;;;;;;10353663;28;20124;-64
2020/12/23 11:14:51;;;;;;;2.87;1.83;;;;;;;;;;10368698;28;20039;-64
2020/12/23 11:19:49;;;;;;;4.83;3.30;;;;;;;;;;10358140;28;20044;-65
2020/12/23 11:24:47;;;;;;;6.53;3.45;;;;;;;;;;10346883;28;20041;-64
2020/12/23 11:29:44;;;;;;;5.07;2.00;;;;;;;;;;10348048;28;20503;-64
2020/12/23 11:34:41;;;;;;;1.43;1.33;;;;;;;;;;10356283;28;20400;-64
2020/12/23 11:39:39;;;;;;;5.37;2.70;;;;;;;;;;10356275;28;20123;-64
2020/12/23 11:44:37;;;;;;;2.37;1.80;;;;;;;;;;10347698;28;20082;-64
2020/12/23 11:49:34;;;;;;;6.60;4.28;;;;;;;;;;10351610;28;20123;-63
2020/12/23 11:54:33;;;;;;;5.93;1.87;;;;;;;;;;10352224;28;20132;-63
2020/12/23 11:59:30;;;;;;;4.20;1.75;;;;;;;;;;10357819;28;20445;-64
2020/12/23 12:04:28;;;;;;;3.67;2.03;;;;;;;;;;10337227;28;20102;-64
2020/12/23 12:09:28;;;;;;;3.60;2.20;;;;;;;;;;10353172;28;20739;-63
2020/12/23 12:14:25;;;;;;;2.88;1.95;;;;;;;;;;10346840;28;20414;-63
2020/12/23 12:19:23;;;;;;;3.47;2.70;;;;;;;;;;10366479;28;20119;-62
2020/12/23 12:24:20;;;;;;;2.33;1.83;;;;;;;;;;10342847;28;20601;-64
2020/12/23 12:29:18;;;;;;;4.33;1.23;;;;;;;;;;10347716;28;20584;-62
2020/12/23 12:34:15;;;;;;;5.00;2.40;;;;;;;;;;10346034;28;20025;-63
2020/12/23 12:39:12;;;;;;;7.07;2.50;;;;;;;;;;10348458;28;20028;-64
2020/12/23 12:44:10;;;;;;;1.77;1.53;;;;;;;;;;10358991;28;20108;-63
2020/12/23 12:49:07;;;;;;;3.50;2.23;;;;;;;;;;10338771;28;20040;-64
2020/12/23 12:54:05;;;;;;;3.83;2.93;;;;;;;;;;10346469;28;20036;-63
2020/12/23 12:59:02;;;;;;;3.13;2.07;;;;;;;;;;10338786;28;20029;-63
2020/12/23 13:04:00;;;;;;;8.27;3.23;;;;;;;;;;10361711;28;20398;-64
2020/12/23 13:08:57;;;;;;;5.40;2.23;;;;;;;;;;10368845;28;20086;-63
2020/12/23 13:13:55;;;;;;;1.00;0.97;;;;;;;;;;10359997;28;20040;-63
2020/12/23 13:18:52;;;;;;;5.70;2.63;;;;;;;;;;10340794;28;20033;-64
2020/12/23 13:23:50;;;;;;;1.83;1.60;;;;;;;;;;10357462;28;20032;-62
2020/12/23 13:28:50;;;;;;;4.63;1.70;;;;;;;;;;10362001;28;20075;-63
2020/12/23 13:33:48;;;;;;;4.15;2.65;;;;;;;;;;10375871;28;20115;-63
2020/12/23 13:38:45;;;;;;;1.97;1.83;;;;;;;;;;10366744;28;20123;-63
2020/12/23 13:43:44;;;;;;;4.73;2.77;;;;;;;;;;10348956;28;20033;-63
2020/12/23 13:48:41;;;;;;;5.75;3.42;;;;;;;;;;10355316;28;20055;-63
2020/12/23 13:53:39;;;;;;;9.00;3.57;;;;;;;;;;10377860;28;20529;-64
2020/12/23 13:58:36;;;;;;;4.03;2.63;;;;;;;;;;10356885;28;21279;-62
2020/12/23 14:03:33;;;;;;;6.10;3.27;;;;;;;;;;10348679;28;20068;-63
2020/12/23 14:08:31;;;;;;;8.10;3.30;;;;;;;;;;10372244;28;20044;-62
2020/12/23 14:13:28;;;;;;;6.27;3.67;;;;;;;;;;10368189;28;20032;-63
2020/12/23 14:18:26;;;;;;;6.97;4.30;;;;;;;;;;10351106;28;20037;-64
2020/12/23 14:23:23;;;;;;;7.50;3.77;;;;;;;;;;10345593;28;20033;-63
2020/12/23 14:28:21;;;;;;;5.57;3.30;;;;;;;;;;10349023;28;20036;-64
2020/12/23 14:33:18;;;;;;;5.93;3.63;;;;;;;;;;10371432;28;20029;-64
2020/12/23 14:38:16;;;;;;;10.83;4.17;;;;;;;;;;10370227;28;20043;-63
2020/12/23 14:43:13;;;;;;;8.93;5.20;;;;;;;;;;10360342;28;20029;-64
2020/12/23 14:48:11;;;;;;;6.27;3.53;;;;;;;;;;10349189;28;20317;-64
2020/12/23 14:53:08;;;;;;;5.93;3.85;;;;;;;;;;10341746;28;20028;-64
2020/12/23 14:58:06;;;;;;;9.00;4.57;;;;;;;;;;10339378;28;20078;-64
2020/12/23 15:03:04;;;;;;;6.50;3.55;;;;;;;;;;10352871;28;20103;-65
2020/12/23 15:08:02;;;;;;;9.83;4.07;;;;;;;;;;10358783;28;20050;-64
2020/12/23 15:13:00;;;;;;;9.85;4.93;;;;;;;;;;10355109;28;20475;-64
2020/12/23 15:17:57;;;;;;;9.97;5.07;;;;;;;;;;10344073;28;20063;-64
2020/12/23 15:22:54;;;;;;;9.43;4.77;;;;;;;;;;10355581;28;20044;-63
2020/12/23 15:27:54;;;;;;;6.67;3.53;;;;;;;;;;10358929;28;20032;-63
2020/12/23 15:32:51;;;;;;;7.20;4.68;;;;;;;;;;10375516;28;20024;-64
2020/12/23 15:37:48;;;;;;;6.43;3.80;;;;;;;;;;10388865;28;20033;-63
2020/12/23 15:42:46;;;;;;;7.23;3.77;;;;;;;;;;10376908;28;20529;-63
2020/12/23 15:47:43;;;;;;;11.10;4.60;;;;;;;;;;10367216;28;20047;-64
2020/12/23 15:52:43;;;;;;;8.77;3.73;;;;;;;;;;10370508;28;20685;-63
2020/12/23 15:57:40;;;;;;;8.63;4.30;;;;;;;;;;10349423;28;20135;-63
2020/12/23 16:02:38;;;;;;;10.47;3.80;;;;;;;;;;10375563;28;20131;-64
2020/12/23 16:07:35;;;;;;;8.73;4.17;;;;;;;;;;10353678;28;20077;-64
2020/12/23 16:12:35;;;;;;;12.57;4.80;;;;;;;;;;10352626;28;20067;-64
2020/12/23 16:17:33;;;;;;;8.48;4.88;;;;;;;;;;10364164;28;20037;-63
2020/12/23 16:22:31;;;;;;;7.83;4.30;;;;;;;;;;10352984;28;20032;-63
2020/12/23 16:27:28;;;;;;;11.33;5.57;;;;;;;;;;10357064;28;20032;-63
2020/12/23 16:32:26;;;;;;;7.57;4.70;;;;;;;;;;10358327;28;20053;-62
2020/12/23 16:37:23;;;;;;;7.80;4.10;;;;;;;;;;10376626;28;20033;-63
2020/12/23 16:42:20;;;;;;;11.87;5.73;;;;;;;;;;10374676;28;20047;-64
2020/12/23 16:47:18;;;;;;;13.77;6.00;;;;;;;;;;10367499;28;20123;-63
2020/12/23 16:52:15;;;;;;;10.13;6.07;;;;;;;;;;10372175;28;20521;-63
2020/12/23 16:57:13;;;;;;;12.80;6.43;;;;;;;;;;10368085;28;20029;-62
2020/12/23 17:02:10;;;;;;;8.10;4.40;;;;;;;;;;10367880;28;20044;-64
2020/12/23 17:07:09;;;;;;;12.03;6.37;;;;;;;;;;10353872;28;20449;-64
2020/12/23 17:12:07;;;;;;;11.15;5.72;;;;;;;;;;10372541;28;20025;-64
2020/12/23 17:17:05;;;;;;;11.80;5.70;;;;;;;;;;10352890;28;20029;-64
2020/12/23 17:22:03;;;;;;;10.83;5.80;;;;;;;;;;10329413;28;20424;-62
2020/12/23 17:27:00;;;;;;;12.00;5.87;;;;;;;;;;10360829;28;20041;-63
2020/12/23 17:31:58;;;;;;;8.23;5.20;;;;;;;;;;10368317;28;20267;-62
2020/12/23 17:36:59;;;;;;;10.43;5.37;;;;;;;;;;10366380;28;20032;-62
2020/12/23 17:41:58;;;;;;;7.72;4.90;;;;;;;;;;10346731;28;20047;-62
2020/12/23 17:47:03;;;;;;;8.75;4.88;;;;;;;;;;10367947;28;20126;-62
2020/12/23 17:52:01;;;;;;;8.65;4.25;;;;;;;;;;10373730;28;20051;-62
2020/12/23 17:56:58;;;;;;;;;;;;;;;;;;10361505;28;20037;-63
2020/12/23 18:01:56;;;;;;;8.90;3.80;;;;;;;;;;10352764;28;19920;-66
2020/12/23 18:06:53;;;;;;;9.43;4.57;;;;;;;;;;10327495;28;20174;-66
2020/12/23 18:11:52;;;;;;;9.50;4.67;;;;;;;;;;10337020;28;20036;-65
2020/12/23 18:16:49;;;;;;;8.05;4.47;;;;;;;;;;10354278;28;20033;-65
2020/12/23 18:21:47;;;;;;;8.00;4.40;;;;;;;;;;10332452;28;20033;-66
2020/12/23 18:26:44;;;;;;;6.73;4.17;;;;;;;;;;10348106;28;20047;-65
2020/12/23 18:31:41;;;;;;;6.63;4.07;;;;;;;;;;10346459;28;20041;-65
2020/12/23 18:36:39;;;;;;;7.10;5.17;;;;;;;;;;10347537;28;20101;-65
2020/12/23 18:41:37;;;;;;;7.17;4.67;;;;;;;;;;10350043;28;20054;-65
2020/12/23 18:46:36;;;;;;;5.93;3.97;;;;;;;;;;10347049;28;20131;-65
2020/12/23 18:51:37;;;;;;;7.60;4.15;;;;;;;;;;10356236;28;20031;-65
2020/12/23 18:56:35;;;;;;;7.43;4.45;;;;;;;;;;10356783;28;20040;-64
2020/12/23 19:01:32;;;;;;;6.73;4.27;;;;;;;;;;10351921;28;20028;-65
2020/12/23 19:06:30;;;;;;;8.40;5.43;;;;;;;;;;10338532;28;20064;-66
2020/12/23 19:11:33;;;;;;;6.87;5.10;;;;;;;;;;10354466;28;20119;-65
2020/12/23 19:16:36;;;;;;;12.45;5.13;;;;;;;;;;10347859;28;20149;-65
2020/12/23 19:21:34;;;;;;;10.25;5.32;;;;;;;;;;10354262;28;20029;-64
2020/12/23 19:26:34;;;;;;;6.63;4.47;;;;;;;;;;10369215;28;20056;-65
2020/12/23 19:31:32;;;;;;;7.40;4.75;;;;;;;;;;10362885;28;20050;-65
2020/12/23 19:36:30;;;;;;;7.90;4.38;;;;;;;;;;10354708;28;20402;-65
2020/12/23 19:41:27;;;;;;;7.50;4.30;;;;;;;;;;10358758;28;20062;-64
2020/12/23 19:46:25;;;;;;;7.37;5.30;;;;;;;;;;10345105;28;20039;-64
2020/12/23 19:51:22;;;;;;;10.33;4.43;;;;;;;;;;10353360;28;20100;-63
2020/12/23 19:56:20;;;;;;;8.67;4.13;;;;;;;;;;10337504;28;20028;-65
2020/12/23 20:01:17;;;;;;;4.70;3.20;;;;;;;;;;10357693;28;20028;-64
2020/12/23 20:06:18;;;;;;;4.73;2.70;;;;;;;;;;10342871;28;20071;-65
2020/12/23 20:11:20;;;;;;;3.25;2.35;;;;;;;;;;10353800;28;20029;-65
2020/12/23 20:16:17;;;;;;;6.63;3.30;;;;;;;;;;10365569;28;20041;-64
2020/12/23 20:21:15;;;;;;;5.03;2.47;;;;;;;;;;10356656;28;20502;-65
2020/12/23 20:26:13;;;;;;;6.03;2.97;;;;;;;;;;10376502;28;20302;-66
2020/12/23 20:31:10;;;;;;;3.83;2.15;;;;;;;;;;10347352;28;20592;-65
2020/12/23 20:36:08;;;;;;;5.30;2.33;;;;;;;;;;10362996;28;20123;-65
2020/12/23 20:41:05;;;;;;;3.33;1.90;;;;;;;;;;10364593;28;20024;-66
2020/12/23 20:46:05;;;;;;;2.88;1.77;;;;;;;;;;10373716;28;20051;-64
2020/12/23 20:51:03;;;;;;;4.50;1.85;;;;;;;;;;10332211;28;20379;-64
2020/12/23 20:56:00;;;;;;;3.50;1.97;;;;;;;;;;10358438;28;20040;-63
2020/12/23 21:00:58;;;;;;;3.97;2.00;;;;;;;;;;10365970;28;20553;-63
2020/12/23 21:05:55;;;;;;;4.30;1.97;;;;;;;;;;10327796;28;20063;-62
2020/12/23 21:10:53;;;;;;;5.73;1.87;;;;;;;;;;10363259;28;20025;-64
2020/12/23 21:15:50;;;;;;;3.93;2.03;;;;;;;;;;10371335;28;20032;-64
2020/12/23 21:20:47;;;;;;;5.73;1.67;;;;;;;;;;10363894;28;20033;-64
2020/12/23 21:25:45;;;;;;;7.07;1.80;;;;;;;;;;10341895;28;20040;-60
2020/12/23 21:30:42;;;;;;;2.07;0.80;;;;;;;;;;10364910;28;20024;-62
2020/12/23 21:35:39;;;;;;;2.00;1.17;;;;;;;;;;10350401;28;20044;-62
2020/12/23 21:40:37;;;;;;;3.73;1.43;;;;;;;;;;10362745;28;20399;-61
2020/12/23 21:45:37;;;;;;;2.07;1.03;;;;;;;;;;10351412;28;20574;-61
2020/12/23 21:50:34;;;;;;;2.67;1.42;;;;;;;;;;10350159;28;20040;-61
2020/12/23 21:55:31;;;;;;;5.03;1.43;;;;;;;;;;10340718;28;20033;-63
2020/12/23 22:00:29;;;;;;;3.57;2.27;;;;;;;;;;10356433;28;20119;-60
2020/12/23 22:05:26;;;;;;;4.93;1.40;;;;;;;;;;10351203;28;20560;-62
2020/12/23 22:10:23;;;;;;;3.37;2.23;;;;;;;;;;10365099;28;20040;-61
2020/12/23 22:15:21;;;;;;;2.33;1.70;;;;;;;;;;10362059;28;20086;-62
2020/12/23 22:20:18;;;;;;;2.50;1.07;;;;;;;;;;10348089;28;20397;-61
2020/12/23 22:25:15;;;;;;;2.80;1.50;;;;;;;;;;10367393;28;20067;-60
2020/12/23 22:30:13;;;;;;;2.70;1.40;;;;;;;;;;10341929;28;20052;-59
2020/12/23 22:35:10;;;;;;;1.90;1.10;;;;;;;;;;10360275;28;20028;-61
2020/12/23 22:40:08;;;;;;;4.33;1.97;;;;;;;;;;10366985;28;20020;-61
2020/12/23 22:45:06;;;;;;;6.67;2.10;;;;;;;;;;10363748;28;20538;-60
2020/12/23 22:50:07;;;;;;;2.63;1.52;;;;;;;;;;10367965;28;20012;-59
2020/12/23 22:55:06;;;;;;;3.67;1.48;;;;;;;;;;10351610;28;20073;-61
2020/12/23 23:00:09;;;;;;;5.75;1.65;;;;;;;;;;10355999;28;20021;-62
2020/12/23 23:05:08;;;;;;;4.07;1.85;;;;;;;;;;10359629;28;20151;-62
2020/12/23 23:10:11;;;;;;;1.75;1.23;;;;;;;;;;10352534;28;20020;-61
2020/12/23 23:15:09;;;;;;;1.77;1.63;;;;;;;;;;10342195;28;20025;-60
2020/12/23 23:20:12;;;;;;;3.17;1.83;;;;;;;;;;10355001;28;20025;-62
2020/12/23 23:25:10;;;;;;;1.75;1.10;;;;;;;;;;10358204;28;20147;-62
2020/12/23 23:30:15;;;;;;;1.23;1.13;;;;;;;;;;10330948;28;20012;-62
2020/12/23 23:35:13;;;;;;;3.10;1.63;;;;;;;;;;10367694;28;20069;-63
2020/12/23 23:40:11;;;;;;;2.50;1.27;;;;;;;;;;10362590;28;20070;-59
2020/12/23 23:45:09;;;;;;;2.33;1.25;;;;;;;;;;10357885;28;20417;-57
2020/12/23 23:50:08;;;;;;;4.20;1.88;;;;;;;;;;10376356;28;20465;-59
2020/12/23 23:55:05;;;;;;;;;;;;;;;;;;10377725;28;20387;-55
